Time;durP1;ratioP1;P1;durP2;ratioP2;P2;SDS_P1;SDS_P2;PMS_P1;PMS_P2;Temp;Humidity;BMP_temperature;BMP_pressure;BME280_temperature;BME280_humidity;BME280_pressure;Samples;Min_cycle;Max_cycle;Signal;HPM_P1;HPM_P2
2022/08/16 00:01:11;;;;;;;15.88;14.32;;;;;;;18.66;81.62;99729.53;4975281;28;20081;-73
2022/08/16 00:03:36;;;;;;;16.50;15.15;;;;;;;18.71;82.15;99732.00;4975407;28;20050;-73
2022/08/16 00:06:02;;;;;;;15.48;13.98;;;;;;;18.69;84.00;99731.19;4975507;28;20049;-73
2022/08/16 00:08:27;;;;;;;14.48;13.00;;;;;;;18.62;80.87;99734.16;4975361;28;20126;-73
2022/08/16 00:10:53;;;;;;;12.43;11.43;;;;;;;18.69;79.84;99729.38;4975364;28;20031;-73
2022/08/16 00:13:18;;;;;;;15.50;14.15;;;;;;;18.73;79.74;99719.38;4975158;28;20077;-73
2022/08/16 00:15:47;;;;;;;15.85;14.57;;;;;;;18.70;79.75;99720.41;4975387;28;20081;-73
2022/08/16 00:18:15;;;;;;;14.75;13.35;;;;;;;18.65;80.48;99727.81;4975153;28;20413;-73
2022/08/16 00:20:43;;;;;;;15.50;14.05;;;;;;;18.52;80.61;99721.38;4976104;28;20465;-73
2022/08/16 00:23:09;;;;;;;14.60;12.93;;;;;;;18.52;80.27;99732.06;4974893;28;20102;-73
2022/08/16 00:25:35;;;;;;;16.08;13.45;;;;;;;18.58;79.52;99721.94;4973905;28;20031;-73
2022/08/16 00:28:01;;;;;;;14.63;13.23;;;;;;;18.58;79.61;99723.75;4974715;28;20038;-73
2022/08/16 00:30:26;;;;;;;12.82;11.52;;;;;;;18.59;79.37;99723.66;4973117;28;20418;-73
2022/08/16 00:32:56;;;;;;;13.35;12.05;;;;;;;18.55;79.50;99719.41;4972597;28;20042;-73
2022/08/16 00:35:25;;;;;;;17.13;14.80;;;;;;;18.38;81.68;99725.63;4973781;28;20026;-73
2022/08/16 00:37:51;;;;;;;16.48;14.55;;;;;;;18.38;80.78;99720.28;4973130;28;20023;-73
2022/08/16 00:40:25;;;;;;;16.27;14.65;;;;;;;18.38;79.98;99720.28;4973192;28;20043;-73
2022/08/16 00:42:51;;;;;;;17.42;13.68;;;;;;;18.34;80.98;99718.72;4974649;28;20037;-73
2022/08/16 00:45:41;;;;;;;17.85;16.25;;;;;;;18.37;80.46;99712.34;4974719;28;20404;-73
2022/08/16 00:48:09;;;;;;;15.50;14.00;;;;;;;18.30;80.87;99716.28;4973046;28;20097;-73
2022/08/16 00:50:37;;;;;;;15.40;13.98;;;;;;;18.13;81.68;99711.78;4976131;28;20532;-73
2022/08/16 00:53:05;;;;;;;16.33;13.50;;;;;;;18.06;82.29;99715.72;4970854;28;20046;-73
2022/08/16 00:55:30;;;;;;;18.08;14.35;;;;;;;18.03;82.37;99713.19;4974057;28;20063;-73
2022/08/16 00:57:57;;;;;;;19.63;14.43;;;;;;;18.06;81.46;99711.22;4974584;28;20074;-73
2022/08/16 01:00:26;;;;;;;15.85;14.43;;;;;;;18.06;81.40;99707.69;4974408;28;20102;-73
2022/08/16 01:02:52;;;;;;;14.95;13.23;;;;;;;18.07;81.21;99712.94;4974248;28;20039;-73
2022/08/16 01:05:18;;;;;;;15.77;14.13;;;;;;;18.13;80.69;99715.34;4972798;28;20035;-73
2022/08/16 01:07:44;;;;;;;15.15;13.65;;;;;;;18.15;80.71;99715.22;4974311;28;20382;-73
2022/08/16 01:10:11;;;;;;;16.50;15.07;;;;;;;18.18;80.45;99717.75;4974248;28;20394;-73
2022/08/16 01:12:36;;;;;;;16.52;14.93;;;;;;;18.15;80.89;99717.91;4972868;28;20034;-73
2022/08/16 01:15:02;;;;;;;15.63;14.18;;;;;;;18.07;81.45;99720.09;4974316;28;20042;-73
2022/08/16 01:17:29;;;;;;;15.00;13.70;;;;;;;18.03;81.16;99730.06;4974152;28;20082;-73
2022/08/16 01:19:59;;;;;;;15.95;14.43;;;;;;;17.94;81.87;99726.03;4977779;28;20045;-73
2022/08/16 01:22:56;;;;;;;18.48;14.00;;;;;;;17.93;82.64;99726.13;4973769;28;20031;-73
2022/08/16 01:25:28;;;;;;;16.63;14.93;;;;;;;17.79;82.76;99742.84;4971891;28;20513;-73
2022/08/16 01:27:57;;;;;;;16.17;14.75;;;;;;;17.67;84.30;99751.38;4970799;28;20031;-73
2022/08/16 01:30:27;;;;;;;16.55;15.05;;;;;;;17.56;86.38;99745.69;4972617;28;20027;-73
2022/08/16 01:32:57;;;;;;;16.77;15.27;;;;;;;17.51;84.43;99738.75;4972570;28;20114;-73
2022/08/16 01:35:31;;;;;;;17.35;15.68;;;;;;;17.61;85.66;99735.69;4961344;28;20039;-73
2022/08/16 01:38:12;;;;;;;15.68;14.38;;;;;;;17.62;84.84;99740.06;4973804;28;20035;-73
2022/08/16 01:40:37;;;;;;;16.25;14.18;;;;;;;17.62;85.14;99734.72;4961799;28;20087;-73
2022/08/16 01:43:03;;;;;;;15.48;13.98;;;;;;;17.58;84.79;99727.78;4971971;28;20042;-73
2022/08/16 01:45:28;;;;;;;17.02;15.43;;;;;;;17.53;84.40;99730.69;4972098;28;20113;-73
2022/08/16 01:47:54;;;;;;;16.70;15.20;;;;;;;17.59;85.45;99737.53;4972232;28;20073;-73
2022/08/16 01:50:21;;;;;;;19.98;16.67;;;;;;;17.64;85.75;99739.06;4972860;28;20489;-73
2022/08/16 01:52:48;;;;;;;15.90;14.30;;;;;;;17.73;84.79;99743.06;4965984;28;20528;-73
2022/08/16 01:55:37;;;;;;;16.98;14.93;;;;;;;17.75;83.94;99739.38;4969764;28;20074;-73
2022/08/16 01:58:03;;;;;;;17.17;15.38;;;;;;;17.82;83.60;99739.16;4972049;28;20042;-73
2022/08/16 02:00:29;;;;;;;16.60;15.00;;;;;;;17.81;83.70;99748.94;4973127;28;20693;-73
2022/08/16 02:02:56;;;;;;;15.90;14.30;;;;;;;17.74;82.39;99742.16;4971860;28;20596;-73
2022/08/16 02:05:22;;;;;;;17.50;15.82;;;;;;;17.73;82.47;99743.94;4972056;28;20059;-74
2022/08/16 02:07:48;;;;;;;17.75;16.05;;;;;;;17.72;82.66;99742.22;4971433;28;20041;-74
2022/08/16 02:10:15;;;;;;;15.90;14.40;;;;;;;17.71;82.88;99739.59;4971849;28;20033;-74
2022/08/16 02:12:43;;;;;;;17.08;15.27;;;;;;;17.71;82.98;99734.25;4971005;28;20034;-73
2022/08/16 02:15:10;;;;;;;15.93;14.48;;;;;;;17.71;82.92;99734.25;4970498;28;20035;-73
2022/08/16 02:17:36;;;;;;;15.40;13.88;;;;;;;17.70;82.82;99741.41;4971783;28;20560;-73
2022/08/16 02:20:03;;;;;;;17.17;15.25;;;;;;;17.69;82.93;99742.38;4973917;28;20031;-74
2022/08/16 02:22:28;;;;;;;16.17;14.70;;;;;;;17.70;83.01;99744.09;4972666;28;20058;-73
2022/08/16 02:24:54;;;;;;;19.25;16.45;;;;;;;17.71;82.77;99739.59;4964136;28;20516;-73
2022/08/16 02:27:19;;;;;;;16.48;15.05;;;;;;;17.69;82.88;99741.50;4971624;28;20042;-73
2022/08/16 02:29:44;;;;;;;17.27;15.38;;;;;;;17.68;83.74;99745.09;4971687;28;20037;-74
2022/08/16 02:32:13;;;;;;;17.98;16.15;;;;;;;17.67;84.51;99741.56;4971321;28;20037;-74
2022/08/16 02:34:39;;;;;;;17.67;15.77;;;;;;;17.64;84.52;99736.38;4965508;28;20032;-73
2022/08/16 02:37:04;;;;;;;15.77;14.35;;;;;;;17.67;84.52;99738.03;4971562;28;20489;-73
2022/08/16 02:39:31;;;;;;;15.82;14.43;;;;;;;17.63;83.67;99737.34;4955483;28;20515;-74
2022/08/16 02:41:56;;;;;;;18.13;16.10;;;;;;;17.63;85.08;99732.00;4970868;28;20042;-73
2022/08/16 02:44:23;;;;;;;17.27;15.63;;;;;;;17.63;85.13;99733.78;4971431;28;20508;-73
2022/08/16 02:46:49;;;;;;;17.17;15.20;;;;;;;17.63;84.85;99728.44;4971325;28;20719;-73
2022/08/16 02:49:16;;;;;;;20.95;18.30;;;;;;;17.59;84.95;99725.06;4971624;28;20494;-73
2022/08/16 02:51:42;;;;;;;21.05;17.65;;;;;;;17.63;85.62;99728.44;4973254;28;20031;-73
2022/08/16 02:54:10;;;;;;;19.50;17.50;;;;;;;17.70;84.85;99727.22;4970741;28;20098;-73
2022/08/16 02:56:35;;;;;;;17.95;16.08;;;;;;;17.73;84.64;99727.06;4970997;28;20486;-73
2022/08/16 02:59:02;;;;;;;17.70;16.00;;;;;;;17.73;83.81;99732.41;4972293;28;20041;-73
2022/08/16 03:01:31;;;;;;;17.67;15.88;;;;;;;17.66;83.99;99755.00;4964791;28;20039;-74
2022/08/16 03:04:00;;;;;;;16.15;14.45;;;;;;;17.57;84.08;99747.41;4972451;28;20034;-73
2022/08/16 03:06:27;;;;;;;19.17;16.42;;;;;;;17.56;84.97;99745.69;4968023;28;20035;-74
2022/08/16 03:08:57;;;;;;;22.15;17.05;;;;;;;17.57;84.93;99748.28;4975034;28;20030;-74
2022/08/16 03:11:24;;;;;;;17.80;16.00;;;;;;;17.60;85.13;99748.13;4970791;28;20096;-73
2022/08/16 03:13:51;;;;;;;16.58;14.90;;;;;;;17.60;84.83;99750.78;4971058;28;20035;-73
2022/08/16 03:16:20;;;;;;;18.45;16.48;;;;;;;17.61;83.43;99757.88;4970930;28;20042;-73
2022/08/16 03:18:45;;;;;;;18.48;16.40;;;;;;;17.55;83.98;99759.97;4975326;28;20042;-73
2022/08/16 03:21:11;;;;;;;17.15;15.35;;;;;;;17.49;83.68;99758.44;4977768;28;20423;-73
2022/08/16 03:23:38;;;;;;;16.73;15.13;;;;;;;17.47;83.06;99763.84;4976215;28;20090;-73
2022/08/16 03:26:04;;;;;;;18.25;16.33;;;;;;;17.44;82.94;99757.81;4974896;28;20116;-73
2022/08/16 03:28:29;;;;;;;14.35;13.05;;;;;;;17.38;83.86;99766.09;4974824;28;20394;-73
2022/08/16 03:30:55;;;;;;;17.17;14.77;;;;;;;17.34;83.64;99762.69;4974479;28;20030;-75
2022/08/16 03:33:20;;;;;;;18.35;15.95;;;;;;;17.30;84.02;99769.13;4974338;28;20120;-75
2022/08/16 03:35:58;;;;;;;18.25;16.35;;;;;;;17.36;84.06;99766.16;4975114;28;20481;-75
2022/08/16 03:38:29;;;;;;;18.70;16.77;;;;;;;17.34;84.79;99767.16;4974767;28;20026;-75
2022/08/16 03:40:57;;;;;;;22.05;19.92;;;;;;;17.25;86.45;99768.47;4974318;28;20126;-76
2022/08/16 03:43:26;;;;;;;23.10;20.27;;;;;;;17.27;86.35;99766.59;4974085;28;20034;-76
2022/08/16 03:45:54;;;;;;;17.40;15.68;;;;;;;17.28;85.59;99770.97;4974565;28;20046;-75
2022/08/16 03:48:26;;;;;;;16.67;14.95;;;;;;;17.26;85.14;99771.03;4974530;28;20031;-75
2022/08/16 03:50:52;;;;;;;17.45;15.73;;;;;;;17.19;84.93;99772.28;4970116;28;20070;-75
2022/08/16 03:53:17;;;;;;;30.67;19.20;;;;;;;17.18;85.70;99773.19;4974024;28;20070;-75
2022/08/16 03:55:44;;;;;;;26.90;18.80;;;;;;;17.25;88.36;99784.47;4974259;28;20034;-75
2022/08/16 03:58:09;;;;;;;18.85;17.08;;;;;;;17.28;86.56;99781.66;4974220;28;20049;-75
2022/08/16 04:00:35;;;;;;;21.63;16.05;;;;;;;17.27;84.78;99787.94;4974075;28;20171;-75
2022/08/16 04:03:07;;;;;;;20.40;18.33;;;;;;;17.23;85.37;99787.19;4969663;28;20549;-75
2022/08/16 04:05:42;;;;;;;24.38;19.17;;;;;;;17.23;85.53;99789.84;4974214;28;20127;-76
2022/08/16 04:08:07;;;;;;;20.63;18.58;;;;;;;17.24;86.24;99794.25;4975410;28;20043;-75
2022/08/16 04:10:33;;;;;;;21.30;19.02;;;;;;;17.26;86.67;99794.19;4974169;28;20027;-75
2022/08/16 04:12:59;;;;;;;20.83;18.73;;;;;;;17.29;86.19;99792.25;4975117;28;20054;-75
2022/08/16 04:15:28;;;;;;;25.95;21.55;;;;;;;17.30;86.07;99798.44;4973957;28;20493;-75
2022/08/16 04:18:15;;;;;;;22.50;17.80;;;;;;;17.28;86.42;99803.84;4970717;28;20031;-74
2022/08/16 04:20:41;;;;;;;17.13;15.43;;;;;;;17.31;85.66;99802.84;4988964;28;20401;-75
2022/08/16 04:23:08;;;;;;;17.25;15.45;;;;;;;17.31;85.42;99808.16;4972276;28;20580;-75
2022/08/16 04:25:36;;;;;;;17.67;15.98;;;;;;;17.34;85.28;99804.50;4961050;28;20425;-75
2022/08/16 04:28:03;;;;;;;20.02;16.42;;;;;;;17.33;85.18;99798.31;4973066;28;20035;-76
2022/08/16 04:30:29;;;;;;;19.27;17.23;;;;;;;17.30;86.19;99807.31;4972135;28;20035;-76
2022/08/16 04:32:55;;;;;;;18.80;16.52;;;;;;;17.41;86.20;99812.16;4974383;28;20022;-76
2022/08/16 04:35:22;;;;;;;21.55;19.48;;;;;;;17.48;85.58;99813.63;4974825;28;20062;-76
2022/08/16 04:37:49;;;;;;;23.77;20.73;;;;;;;17.53;85.88;99816.06;4972068;28;20066;-75
2022/08/16 04:40:28;;;;;;;21.98;18.38;;;;;;;17.63;85.46;99813.81;4972941;28;20122;-76
2022/08/16 04:42:56;;;;;;;22.20;20.08;;;;;;;17.67;86.20;99807.41;4972494;28;20038;-75
2022/08/16 04:45:24;;;;;;;24.48;18.58;;;;;;;17.74;85.46;99817.75;4971276;28;20038;-75
2022/08/16 04:47:52;;;;;;;24.08;21.38;;;;;;;17.82;85.77;99828.09;4973062;28;20122;-75
2022/08/16 04:50:21;;;;;;;29.50;24.27;;;;;;;17.98;85.00;99830.03;4972693;28;20045;-75
2022/08/16 04:53:05;;;;;;;22.90;20.48;;;;;;;18.06;84.98;99834.06;4971337;28;20045;-76
2022/08/16 04:55:33;;;;;;;26.92;20.30;;;;;;;18.16;84.23;99831.81;4977117;28;20121;-75
2022/08/16 04:57:59;;;;;;;22.20;19.90;;;;;;;18.29;84.11;99845.44;4971640;28;20126;-75
2022/08/16 05:00:33;;;;;;;22.35;20.23;;;;;;;18.42;83.34;99838.56;4988293;28;20442;-75
2022/08/16 05:03:07;;;;;;;32.20;28.67;;;;;;;18.54;83.40;99832.56;4971029;28;20413;-76
2022/08/16 05:05:38;;;;;;;25.73;21.67;;;;;;;18.67;82.66;99835.50;4973089;28;20034;-75
2022/08/16 05:08:04;;;;;;;22.92;20.48;;;;;;;18.76;82.35;99843.09;4972946;28;20110;-75
2022/08/16 05:10:31;;;;;;;21.25;18.75;;;;;;;18.83;81.73;99844.50;4970151;28;20039;-76
2022/08/16 05:12:57;;;;;;;19.05;17.10;;;;;;;18.94;81.04;99848.44;4970745;28;20034;-76
2022/08/16 05:15:24;;;;;;;20.77;18.70;;;;;;;18.99;80.80;99849.94;4969093;28;20039;-75
2022/08/16 05:17:49;;;;;;;21.67;19.73;;;;;;;19.01;80.92;99849.84;4970942;28;20082;-76
2022/08/16 05:20:14;;;;;;;23.02;18.27;;;;;;;19.06;81.31;99850.47;4973424;28;20047;-76
2022/08/16 05:22:41;;;;;;;19.83;17.85;;;;;;;19.12;80.65;99857.31;4970707;28;20027;-76
2022/08/16 05:25:11;;;;;;;23.08;18.52;;;;;;;19.22;80.25;99862.09;4971946;28;20516;-76
2022/08/16 05:27:42;;;;;;;21.50;17.30;;;;;;;19.33;79.71;99866.00;4972604;28;20042;-76
2022/08/16 05:30:12;;;;;;;20.25;18.23;;;;;;;19.42;79.11;99858.38;4972303;28;20076;-76
2022/08/16 05:32:40;;;;;;;19.10;16.30;;;;;;;19.48;78.33;99862.53;4972533;28;20105;-75
2022/08/16 05:35:09;;;;;;;16.27;14.75;;;;;;;19.60;77.38;99856.53;4972425;28;20129;-76
2022/08/16 05:37:37;;;;;;;18.48;15.13;;;;;;;19.73;77.24;99863.91;4972470;28;20117;-75
2022/08/16 05:40:04;;;;;;;15.95;14.40;;;;;;;19.87;76.21;99874.72;4972142;28;20106;-76
2022/08/16 05:42:30;;;;;;;20.98;17.58;;;;;;;20.01;75.42;99873.97;4971900;28;20131;-76
2022/08/16 05:44:55;;;;;;;25.85;18.83;;;;;;;20.14;75.06;99865.16;4972416;28;20549;-75
2022/08/16 05:47:21;;;;;;;17.45;15.73;;;;;;;20.28;74.37;99860.84;4971484;28;20034;-75
2022/08/16 05:49:46;;;;;;;14.85;13.30;;;;;;;20.35;73.38;99870.25;4975425;28;20026;-76
2022/08/16 05:52:12;;;;;;;20.02;14.55;;;;;;;20.41;73.19;99869.91;4971878;28;20040;-76
2022/08/16 05:54:38;;;;;;;17.75;13.70;;;;;;;20.53;72.63;99865.66;4970712;28;20437;-76
2022/08/16 05:57:04;;;;;;;14.50;13.25;;;;;;;20.63;72.24;99871.38;4970668;28;20113;-76
2022/08/16 05:59:31;;;;;;;14.45;13.05;;;;;;;20.73;71.25;99864.53;4971862;28;20094;-76
2022/08/16 06:01:57;;;;;;;15.25;13.45;;;;;;;20.78;71.16;99863.31;4971619;28;20457;-76
2022/08/16 06:04:28;;;;;;;17.38;15.77;;;;;;;20.86;70.80;99865.53;4970614;28;20053;-75
2022/08/16 06:06:54;;;;;;;15.07;13.43;;;;;;;20.96;69.45;99880.13;4969773;28;20493;-75
2022/08/16 06:09:19;;;;;;;14.88;13.57;;;;;;;21.07;69.25;99873.25;4969810;28;20456;-75
2022/08/16 06:11:45;;;;;;;18.27;15.90;;;;;;;21.15;68.85;99882.56;4970050;28;20381;-75
2022/08/16 06:14:11;;;;;;;14.27;12.63;;;;;;;21.33;68.85;99880.59;4970000;28;20034;-75
2022/08/16 06:16:40;;;;;;;16.42;14.73;;;;;;;21.49;67.02;99879.69;4971569;28;20081;-75
2022/08/16 06:19:06;;;;;;;16.75;14.48;;;;;;;21.58;66.12;99874.59;4968005;28;20110;-76
2022/08/16 06:21:34;;;;;;;17.05;15.68;;;;;;;21.71;65.54;99876.50;4971933;28;20624;-75
2022/08/16 06:24:02;;;;;;;17.17;15.77;;;;;;;21.78;64.67;99875.19;4971697;28;20038;-74
2022/08/16 06:26:31;;;;;;;18.02;16.52;;;;;;;21.86;63.27;99889.84;4967942;28;20042;-76
2022/08/16 06:28:56;;;;;;;16.88;15.13;;;;;;;21.96;63.28;99884.75;4971267;28;20038;-75
2022/08/16 06:31:29;;;;;;;15.77;14.45;;;;;;;22.10;62.77;99878.50;4970712;28;20034;-75
2022/08/16 06:33:56;;;;;;;17.45;16.05;;;;;;;22.25;63.05;99884.75;4971500;28;20038;-76
2022/08/16 06:36:22;;;;;;;16.90;15.30;;;;;;;22.39;62.56;99875.75;4954583;28;20134;-75
2022/08/16 06:39:03;;;;;;;19.70;15.45;;;;;;;22.47;60.48;99886.88;4971164;28;20041;-74
2022/08/16 06:41:43;;;;;;;23.23;21.35;;;;;;;22.55;59.50;99884.53;4968644;28;20038;-76
2022/08/16 06:44:19;;;;;;;17.27;15.88;;;;;;;22.71;59.16;99897.84;4969784;28;20035;-73
2022/08/16 06:46:44;;;;;;;16.33;14.90;;;;;;;22.75;58.27;99889.47;4967607;28;20132;-73
2022/08/16 06:49:15;;;;;;;16.20;14.90;;;;;;;22.84;58.73;99885.28;4969054;28;20031;-73
2022/08/16 06:51:41;;;;;;;16.73;15.27;;;;;;;22.99;58.60;99888.81;4971861;28;20408;-73
2022/08/16 06:54:08;;;;;;;17.63;16.20;;;;;;;23.07;57.54;99889.16;4970257;28;20114;-73
2022/08/16 06:56:35;;;;;;;17.13;15.93;;;;;;;23.06;56.40;99892.81;4971053;28;20026;-73
2022/08/16 06:59:08;;;;;;;14.98;13.18;;;;;;;23.17;56.37;99895.63;4969807;28;20027;-74
2022/08/16 07:01:36;;;;;;;13.32;12.27;;;;;;;23.29;55.40;99902.00;4970553;28;20043;-73
2022/08/16 07:04:02;;;;;;;14.30;13.15;;;;;;;23.35;56.12;99898.03;4970495;28;20026;-74
2022/08/16 07:06:32;;;;;;;15.02;13.15;;;;;;;23.38;55.01;99898.66;4984662;28;20525;-74
2022/08/16 07:09:01;;;;;;;13.43;12.32;;;;;;;23.51;55.33;99909.44;4969883;28;20035;-74
2022/08/16 07:11:30;;;;;;;15.80;14.25;;;;;;;23.67;55.31;99903.00;4969302;28;20097;-73
2022/08/16 07:13:55;;;;;;;16.58;15.40;;;;;;;23.77;54.98;99907.66;4967952;28;20050;-73
2022/08/16 07:16:23;;;;;;;14.75;13.38;;;;;;;23.83;54.02;99909.03;4967116;28;20501;-74
2022/08/16 07:18:49;;;;;;;16.33;14.73;;;;;;;23.93;54.31;99907.41;4969540;28;20037;-74
2022/08/16 07:21:14;;;;;;;15.55;13.20;;;;;;;24.05;53.57;99908.34;4969606;28;20035;-72
2022/08/16 07:23:44;;;;;;;13.70;12.60;;;;;;;24.12;53.35;99906.94;4968664;28;20030;-74
2022/08/16 07:26:17;;;;;;;14.02;12.95;;;;;;;24.23;53.23;99911.56;4968990;28;20137;-73
2022/08/16 07:28:42;;;;;;;18.67;16.77;;;;;;;24.25;52.02;99910.47;4966337;28;20720;-74
2022/08/16 07:31:08;;;;;;;12.52;11.23;;;;;;;24.37;52.39;99911.41;4968968;28;20027;-74
2022/08/16 07:33:41;;;;;;;14.48;13.38;;;;;;;24.43;51.88;99908.25;4969138;28;20023;-74
2022/08/16 07:36:08;;;;;;;12.48;11.57;;;;;;;24.54;51.83;99912.03;4984520;28;20722;-73
2022/08/16 07:38:37;;;;;;;15.57;14.15;;;;;;;24.67;51.72;99918.25;4970791;28;20031;-74
2022/08/16 07:41:03;;;;;;;12.60;11.25;;;;;;;24.80;50.64;99921.75;4970216;28;20061;-73
2022/08/16 07:43:31;;;;;;;14.13;12.77;;;;;;;24.85;50.83;99927.66;4969873;28;20035;-74
2022/08/16 07:46:00;;;;;;;11.82;11.00;;;;;;;24.97;50.37;99920.47;4968721;28;20039;-73
2022/08/16 07:48:26;;;;;;;13.02;11.88;;;;;;;24.96;50.45;99925.97;4966892;28;20122;-74
2022/08/16 07:50:54;;;;;;;13.82;12.77;;;;;;;25.05;49.91;99925.31;4971913;28;20027;-73
2022/08/16 07:53:20;;;;;;;13.18;11.88;;;;;;;25.17;50.28;99932.47;4968478;28;20042;-73
2022/08/16 07:55:46;;;;;;;14.00;12.65;;;;;;;25.17;49.91;99935.19;4969411;28;20094;-73
2022/08/16 07:58:12;;;;;;;11.73;10.82;;;;;;;25.34;48.91;99925.78;4954642;28;20046;-74
2022/08/16 08:00:38;;;;;;;11.68;10.68;;;;;;;25.38;48.48;99939.91;4970529;28;20403;-74
2022/08/16 08:03:03;;;;;;;11.90;10.75;;;;;;;25.43;48.77;99932.31;4970434;28;20556;-74
2022/08/16 08:05:29;;;;;;;12.90;11.93;;;;;;;25.51;48.85;99936.13;4973073;28;20034;-73
2022/08/16 08:07:55;;;;;;;13.00;11.63;;;;;;;25.68;49.08;99937.53;4974986;28;20045;-74
2022/08/16 08:10:23;;;;;;;12.05;10.88;;;;;;;25.84;48.03;99930.91;4972521;28;20034;-74
2022/08/16 08:12:52;;;;;;;13.48;12.18;;;;;;;25.91;47.95;99932.16;4969562;28;20045;-73
2022/08/16 08:15:19;;;;;;;12.77;11.75;;;;;;;25.97;47.75;99927.13;4973166;28;20033;-73
2022/08/16 08:17:44;;;;;;;12.60;11.70;;;;;;;25.95;47.27;99926.41;4957817;28;20031;-73
2022/08/16 08:20:19;;;;;;;11.40;10.40;;;;;;;25.96;47.86;99930.84;4972239;28;20035;-73
2022/08/16 08:22:46;;;;;;;13.25;12.07;;;;;;;26.01;47.37;99933.16;4971384;28;20508;-73
2022/08/16 08:25:13;;;;;;;12.70;11.48;;;;;;;26.12;46.80;99941.28;4957825;28;20039;-74
2022/08/16 08:27:41;;;;;;;12.50;11.50;;;;;;;26.20;47.18;99943.38;4973609;28;20485;-74
2022/08/16 08:30:08;;;;;;;13.20;12.10;;;;;;;26.33;46.75;99940.50;4972946;28;20045;-74
2022/08/16 08:32:33;;;;;;;13.43;12.23;;;;;;;26.44;46.90;99952.19;4971414;28;20061;-73
2022/08/16 08:35:03;;;;;;;13.45;12.13;;;;;;;26.57;46.95;99954.78;4956245;28;20031;-74
2022/08/16 08:37:29;;;;;;;14.13;12.65;;;;;;;26.71;47.06;99955.50;4957555;28;20035;-73
2022/08/16 08:39:57;;;;;;;14.85;13.65;;;;;;;26.80;45.79;99955.59;4973367;28;20118;-73
2022/08/16 08:42:22;;;;;;;12.18;11.27;;;;;;;26.83;44.70;99958.03;4973067;28;20121;-74
2022/08/16 08:44:48;;;;;;;12.98;11.77;;;;;;;26.84;44.72;99958.91;4973092;28;20062;-74
2022/08/16 08:47:13;;;;;;;12.48;11.48;;;;;;;26.83;45.33;99954.50;4971319;28;20034;-74
2022/08/16 08:49:39;;;;;;;15.98;14.57;;;;;;;27.03;45.23;99953.66;4972324;28;20034;-74
2022/08/16 08:52:05;;;;;;;11.93;11.02;;;;;;;27.08;43.92;99954.13;4971314;28;20357;-74
2022/08/16 08:54:32;;;;;;;13.13;11.90;;;;;;;27.14;44.17;99955.44;4974439;28;20572;-74
2022/08/16 08:56:59;;;;;;;14.38;13.23;;;;;;;27.16;43.73;99950.78;4972962;28;20031;-73
2022/08/16 08:59:36;;;;;;;12.70;11.77;;;;;;;27.10;43.52;99954.88;4971122;28;20117;-74
2022/08/16 09:02:03;;;;;;;14.50;13.18;;;;;;;27.06;43.51;99939.00;4972748;28;20090;-74
2022/08/16 09:04:33;;;;;;;12.57;11.63;;;;;;;27.17;43.68;99948.91;4973111;28;20031;-74
2022/08/16 09:07:00;;;;;;;14.60;13.52;;;;;;;27.22;43.65;99949.41;4973148;28;20030;-74
2022/08/16 09:09:27;;;;;;;15.02;13.68;;;;;;;27.32;43.49;99944.94;4973023;28;20043;-73
2022/08/16 09:11:56;;;;;;;13.88;12.80;;;;;;;27.39;42.99;99951.56;4969954;28;20038;-74
2022/08/16 09:14:21;;;;;;;15.07;13.80;;;;;;;27.48;42.59;99939.06;4972850;28;20093;-73
2022/08/16 09:16:47;;;;;;;13.57;12.57;;;;;;;27.48;42.59;99944.47;4973613;28;20038;-74
2022/08/16 09:19:12;;;;;;;13.48;12.45;;;;;;;27.64;42.29;99944.00;4973817;28;20031;-73
2022/08/16 09:21:37;;;;;;;15.20;13.88;;;;;;;27.68;42.39;99940.91;4975449;28;20497;-74
2022/08/16 09:24:04;;;;;;;16.48;14.88;;;;;;;27.71;42.40;99940.63;4972655;28;20515;-74
2022/08/16 09:26:29;;;;;;;14.50;13.40;;;;;;;27.75;41.33;99949.38;4956073;28;20442;-73
2022/08/16 09:28:56;;;;;;;17.65;16.13;;;;;;;27.78;42.19;99940.97;4972582;28;20051;-73
2022/08/16 09:35:09;;;;;;;11.80;10.90;;;;;;;28.06;41.04;99943.97;4981713;28;20096;-74
2022/08/16 09:37:35;;;;;;;13.40;12.40;;;;;;;28.03;41.27;99933.41;4973777;28;20075;-74
2022/08/16 09:40:02;;;;;;;15.75;14.55;;;;;;;28.11;41.07;99939.00;4971947;28;20406;-74
2022/08/16 09:42:28;;;;;;;16.77;15.18;;;;;;;28.19;41.36;99941.88;4972968;28;20039;-73
2022/08/16 09:44:53;;;;;;;16.65;15.35;;;;;;;28.24;40.67;99931.47;4972539;28;20123;-74
2022/08/16 09:47:19;;;;;;;12.85;11.75;;;;;;;28.31;40.89;99934.53;4973409;28;20175;-73
2022/08/16 09:49:44;;;;;;;11.73;10.95;;;;;;;28.26;39.60;99934.94;4976103;28;20050;-73
2022/08/16 09:52:10;;;;;;;11.93;11.02;;;;;;;28.14;39.70;99930.63;4973466;28;20038;-74
2022/08/16 09:54:37;;;;;;;12.45;11.35;;;;;;;28.18;38.91;99932.91;4973532;28;20110;-74
2022/08/16 09:57:02;;;;;;;13.73;12.60;;;;;;;28.32;39.42;99931.69;4973453;28;20066;-74
2022/08/16 09:59:27;;;;;;;12.93;12.10;;;;;;;28.46;38.47;99932.31;4973269;28;20074;-74
2022/08/16 10:01:53;;;;;;;13.45;12.15;;;;;;;28.46;38.01;99930.47;4971684;28;20047;-74
2022/08/16 10:04:19;;;;;;;12.80;11.70;;;;;;;28.60;38.29;99926.47;4971975;28;20034;-73
2022/08/16 10:06:45;;;;;;;13.63;12.40;;;;;;;28.56;38.45;99925.91;4975453;28;20058;-73
2022/08/16 10:09:13;;;;;;;11.90;11.10;;;;;;;28.64;38.72;99933.34;4973818;28;20106;-73
2022/08/16 10:14:27;;;;;;;12.80;11.82;;;;;;;28.87;37.87;99927.66;4973035;28;20050;-74
2022/08/16 10:16:54;;;;;;;13.23;12.13;;;;;;;28.96;38.04;99918.66;4973104;28;20486;-74
2022/08/16 10:19:19;;;;;;;13.98;12.63;;;;;;;28.77;38.29;99923.09;4972828;28;20101;-73
2022/08/16 10:21:45;;;;;;;14.65;13.35;;;;;;;28.66;38.50;99925.91;4976147;28;20039;-73
2022/08/16 10:24:10;;;;;;;13.73;12.73;;;;;;;28.62;38.63;99924.50;4972887;28;20042;-74
2022/08/16 10:26:36;;;;;;;12.50;11.57;;;;;;;28.66;37.53;99925.06;4970915;28;20058;-74
2022/08/16 10:29:04;;;;;;;13.27;12.38;;;;;;;28.70;37.81;99916.50;4971673;28;20065;-73
2022/08/16 10:31:30;;;;;;;14.38;13.07;;;;;;;28.97;37.52;99923.94;4972283;28;20503;-74
2022/08/16 10:33:55;;;;;;;12.70;11.82;;;;;;;29.16;37.38;99933.13;4972788;28;20076;-73
2022/08/16 10:36:20;;;;;;;13.90;12.85;;;;;;;29.45;35.91;99928.53;4972765;28;20055;-73
2022/08/16 10:38:45;;;;;;;14.95;14.10;;;;;;;29.75;35.43;99925.78;4978910;28;20126;-73
2022/08/16 10:41:12;;;;;;;14.30;13.40;;;;;;;29.89;34.79;99931.63;4968861;28;20085;-74
2022/08/16 10:43:39;;;;;;;15.00;13.90;;;;;;;30.13;33.92;99924.78;4968814;28;20042;-73
2022/08/16 10:46:08;;;;;;;14.82;13.93;;;;;;;30.24;33.58;99915.59;4972527;28;20461;-74
2022/08/16 10:48:33;;;;;;;14.25;13.20;;;;;;;30.30;33.61;99924.00;4969687;28;20125;-73
2022/08/16 10:50:59;;;;;;;14.52;13.45;;;;;;;30.30;33.32;99917.72;4972394;28;20110;-73
2022/08/16 10:53:27;;;;;;;14.73;13.57;;;;;;;30.60;33.40;99918.38;4972422;28;20537;-74
2022/08/16 10:55:52;;;;;;;14.45;13.55;;;;;;;30.90;33.37;99919.94;4968861;28;20038;-73
2022/08/16 10:58:17;;;;;;;14.55;13.45;;;;;;;31.09;32.70;99918.91;4972340;28;20147;-74
2022/08/16 11:00:44;;;;;;;17.92;16.80;;;;;;;31.19;31.58;99925.97;4971724;28;20134;-74
2022/08/16 11:03:10;;;;;;;14.02;13.13;;;;;;;30.98;31.51;99911.81;4971308;28;20027;-74
2022/08/16 11:05:38;;;;;;;15.48;14.55;;;;;;;31.37;32.10;99912.38;4970995;28;20097;-74
2022/08/16 11:08:06;;;;;;;15.80;14.70;;;;;;;31.55;31.76;99911.47;4971634;28;20046;-74
2022/08/16 11:10:39;;;;;;;15.25;14.35;;;;;;;31.66;30.55;99919.38;4971543;28;20429;-74
2022/08/16 11:13:06;;;;;;;18.20;17.10;;;;;;;32.04;29.61;99909.94;4970875;28;20066;-74
2022/08/16 11:15:34;;;;;;;16.73;15.63;;;;;;;31.99;30.66;99911.41;4972453;28;20046;-74
2022/08/16 11:17:59;;;;;;;16.42;15.32;;;;;;;32.05;29.82;99908.03;4972207;28;20506;-74
2022/08/16 11:20:27;;;;;;;17.05;16.05;;;;;;;32.17;29.52;99909.44;4973389;28;20046;-74
2022/08/16 11:22:53;;;;;;;15.95;14.70;;;;;;;31.99;30.06;99905.94;4968536;28;20062;-74
2022/08/16 11:25:21;;;;;;;14.95;13.95;;;;;;;31.79;29.70;99911.63;4972148;28;20050;-73